Terminal Aerodrome Forecast
Issued by NWS

Home | Current Version | Previous Version | Text Only | Print | Product List | Glossary Off
Versions: 1 2 3 4 5 6 7 8 9 10 11 12 13 14 15 16

000
FTUS43 KJKL 282106 AAA
TAFSME
TAF AMD
KSME 282106Z 2821/2918 00000KT P6SM VCTS BKN050CB OVC250
      TEMPO 2821/2823 VRB10G25KT 2SM TSRA BR BKN025CB BKN050
     FM290000 VRB03KT P6SM SCT250=

USA.gov is the U.S. government's official web portal to all federal, state and local government web resources and services.